Time;durP1;ratioP1;P1;durP2;ratioP2;P2;SDS_P1;SDS_P2;PMS_P1;PMS_P2;Temp;Humidity;BMP_temperature;BMP_pressure;BME280_temperature;BME280_humidity;BME280_pressure;Samples;Min_cycle;Max_cycle;Signal;HPM_P1;HPM_P2
2024/01/23 00:00:07;;;;;;;3.40;2.90;;;;;;;12.15;49.02;98323.65;105620;1259;62423;-49
2024/01/23 00:02:34;;;;;;;3.60;3.20;;;;;;;12.14;49.19;98324.79;105578;1259;62120;-49
2024/01/23 00:05:01;;;;;;;3.40;3.10;;;;;;;12.15;49.18;98327.39;105637;1256;74328;-49
2024/01/23 00:07:28;;;;;;;3.30;3.00;;;;;;;12.14;49.19;98333.44;105698;1259;65933;-49
2024/01/23 00:09:55;;;;;;;3.50;2.80;;;;;;;12.15;49.18;98328.48;105696;1259;72582;-49
2024/01/23 00:12:22;;;;;;;3.20;2.90;;;;;;;12.14;49.06;98329.23;105687;1260;62103;-49
2024/01/23 00:14:48;;;;;;;3.80;2.80;;;;;;;12.14;49.26;98331.44;105485;1256;62156;-49
2024/01/23 00:17:15;;;;;;;3.70;3.10;;;;;;;12.14;49.12;98335.36;105390;1259;75399;-48
2024/01/23 00:19:51;;;;;;;;;;;;;;;12.14;49.22;98338.90;105603;1258;65221;-48
2024/01/23 00:22:17;;;;;;;3.20;2.90;;;;;;;12.14;49.14;98341.32;105664;1259;72560;-49
2024/01/23 00:24:44;;;;;;;3.60;3.20;;;;;;;12.13;49.14;98340.52;105427;1259;62047;-49
2024/01/23 00:27:11;;;;;;;2.80;2.50;;;;;;;12.14;49.04;98339.77;105544;1259;62138;-49
2024/01/23 00:29:38;;;;;;;3.20;2.80;;;;;;;12.14;49.20;98338.80;105557;1258;75376;-49
2024/01/23 00:32:05;;;;;;;3.40;3.10;;;;;;;12.14;49.21;98340.30;105475;1260;64752;-49
2024/01/23 00:34:32;;;;;;;3.30;2.90;;;;;;;12.14;49.16;98342.61;105589;1254;72692;-49
2024/01/23 00:36:59;;;;;;;2.90;2.50;;;;;;;12.14;49.12;98342.72;105742;1258;61962;-49
2024/01/23 00:39:25;;;;;;;3.40;3.10;;;;;;;12.14;49.09;98344.27;105497;1257;62149;-49
2024/01/23 00:41:52;;;;;;;3.40;3.00;;;;;;;12.14;49.04;98339.55;105687;1254;75407;-49
2024/01/23 00:44:19;;;;;;;3.00;2.60;;;;;;;12.14;49.16;98336.48;105502;1258;66160;-49
2024/01/23 00:46:46;;;;;;;4.00;2.90;;;;;;;12.14;49.16;98331.06;105446;1259;72332;-49
2024/01/23 00:49:12;;;;;;;3.20;2.80;;;;;;;12.15;49.12;98335.45;105458;1259;62053;-49
2024/01/23 00:51:39;;;;;;;3.40;3.10;;;;;;;12.15;49.06;98340.84;106132;1254;62091;-49
2024/01/23 00:54:06;;;;;;;3.40;3.00;;;;;;;12.15;49.23;98340.23;105504;1254;75364;-49
2024/01/23 00:56:35;;;;;;;3.40;2.90;;;;;;;12.15;49.22;98330.94;105469;1254;65401;-49
2024/01/23 00:59:01;;;;;;;3.60;3.00;;;;;;;12.15;49.19;98325.73;105385;1254;72427;-51
2024/01/23 01:01:28;;;;;;;3.10;2.70;;;;;;;12.15;49.15;98316.00;105338;1257;62071;-50
2024/01/23 01:03:55;;;;;;;3.20;2.90;;;;;;;12.15;49.08;98314.55;105483;1259;62131;-50
2024/01/23 01:06:22;;;;;;;3.70;3.00;;;;;;;12.16;49.17;98316.58;105453;1254;75370;-50
2024/01/23 01:08:49;;;;;;;3.10;2.80;;;;;;;12.16;49.17;98314.66;105640;1258;66293;-50
2024/01/23 01:11:16;;;;;;;3.20;2.70;;;;;;;12.16;49.09;98307.52;105568;1254;72274;-50
2024/01/23 01:13:42;;;;;;;3.10;2.80;;;;;;;12.15;49.03;98304.19;105544;1258;62040;-50
2024/01/23 01:16:09;;;;;;;3.10;2.80;;;;;;;12.15;49.09;98301.83;105318;1255;62447;-50
2024/01/23 01:18:36;;;;;;;3.30;3.00;;;;;;;12.15;49.19;98302.20;105285;1258;162051;-50
2024/01/23 01:21:04;;;;;;;3.60;3.10;;;;;;;12.16;49.02;98300.48;105529;1258;66218;-48
2024/01/23 01:23:30;;;;;;;3.30;3.00;;;;;;;12.16;49.00;98295.86;105692;1255;72532;-49
2024/01/23 01:25:57;;;;;;;4.20;3.20;;;;;;;12.16;49.18;98297.84;105655;1258;61938;-49
2024/01/23 01:28:24;;;;;;;3.60;2.80;;;;;;;12.16;48.96;98301.61;105672;1254;62111;-49
2024/01/23 01:30:50;;;;;;;3.40;2.90;;;;;;;12.16;49.06;98292.79;105549;1254;74164;-49
2024/01/23 01:33:18;;;;;;;3.20;2.90;;;;;;;12.16;49.06;98299.13;105547;1267;63858;-49
2024/01/23 01:35:45;;;;;;;3.30;3.00;;;;;;;12.16;49.15;98297.90;105389;1259;72534;-49
2024/01/23 01:38:11;;;;;;;4.30;2.80;;;;;;;12.17;48.94;98300.89;105498;1258;62182;-49
2024/01/23 01:40:38;;;;;;;3.30;2.70;;;;;;;12.16;49.04;98294.30;105568;1254;62051;-49
2024/01/23 01:43:05;;;;;;;4.70;3.20;;;;;;;12.16;49.07;98292.41;105626;1260;75360;-49
2024/01/23 01:45:31;;;;;;;3.80;3.00;;;;;;;12.17;49.07;98285.98;105560;1261;66268;-49
2024/01/23 01:47:58;;;;;;;3.30;3.00;;;;;;;12.16;48.99;98278.98;105609;1254;72633;-48
2024/01/23 01:50:26;;;;;;;3.30;3.00;;;;;;;12.17;48.95;98277.65;105647;1261;62158;-49
2024/01/23 01:52:52;;;;;;;3.10;2.80;;;;;;;12.16;48.93;98273.73;105566;1254;62743;-50
2024/01/23 01:55:19;;;;;;;3.80;3.20;;;;;;;12.17;49.05;98275.45;105114;1262;75226;-49
2024/01/23 01:57:46;;;;;;;3.10;2.80;;;;;;;12.17;49.05;98275.13;105569;1260;65838;-48
2024/01/23 02:00:13;;;;;;;3.50;2.80;;;;;;;12.16;49.02;98271.36;105578;1258;72472;-48
2024/01/23 02:02:42;;;;;;;3.30;2.80;;;;;;;12.16;49.04;98262.98;105680;1258;62042;-48
2024/01/23 02:05:09;;;;;;;3.50;2.90;;;;;;;12.16;49.07;98256.38;105558;1254;62215;-50
2024/01/23 02:07:36;;;;;;;3.20;2.90;;;;;;;12.16;49.04;98253.16;105471;1263;75157;-50
2024/01/23 02:10:03;;;;;;;4.10;3.00;;;;;;;12.16;49.01;98254.08;105574;1258;65963;-50
2024/01/23 02:12:29;;;;;;;3.60;2.90;;;;;;;12.17;48.94;98248.80;105489;1254;71222;-50
2024/01/23 02:14:56;;;;;;;3.30;2.90;;;;;;;12.16;48.96;98251.55;105436;1255;62009;-50
2024/01/23 02:17:23;;;;;;;4.60;2.90;;;;;;;12.16;49.05;98251.77;105449;1259;62033;-50
2024/01/23 02:19:50;;;;;;;3.30;2.80;;;;;;;12.17;49.05;98250.42;105517;1258;75432;-50
2024/01/23 02:22:17;;;;;;;3.30;3.00;;;;;;;12.16;49.02;98247.41;105662;1259;66191;-50
2024/01/23 02:24:44;;;;;;;5.10;3.20;;;;;;;12.17;49.04;98244.45;105399;1255;72394;-50
2024/01/23 02:27:10;;;;;;;3.40;3.00;;;;;;;12.17;48.97;98245.68;105553;1258;62067;-50
2024/01/23 02:29:37;;;;;;;3.30;2.70;;;;;;;12.17;49.09;98241.08;105685;1254;62130;-48
2024/01/23 02:32:04;;;;;;;3.10;2.80;;;;;;;12.17;48.97;98238.39;105653;1254;75421;-49
2024/01/23 02:34:30;;;;;;;3.20;2.90;;;;;;;12.17;49.10;98238.23;105606;1261;66044;-48
2024/01/23 02:36:57;;;;;;;2.90;2.60;;;;;;;12.17;49.05;98242.91;105653;1254;73016;-49
2024/01/23 02:39:25;;;;;;;3.20;2.90;;;;;;;12.17;48.98;98237.63;105629;1261;62114;-49
2024/01/23 02:41:53;;;;;;;3.70;2.80;;;;;;;12.17;49.05;98235.48;105834;1259;62147;-49
2024/01/23 02:44:19;;;;;;;3.10;2.80;;;;;;;12.17;48.96;98236.24;105462;1258;75414;-49
2024/01/23 02:46:46;;;;;;;3.30;3.00;;;;;;;12.17;48.99;98228.52;105703;1258;66611;-49
2024/01/23 02:49:13;;;;;;;3.70;2.60;;;;;;;12.17;48.96;98222.70;105503;1254;73488;-48
2024/01/23 02:51:40;;;;;;;3.50;2.90;;;;;;;12.17;48.94;98225.38;106083;1258;61942;-48
2024/01/23 02:54:07;;;;;;;3.50;2.60;;;;;;;12.18;49.01;98222.48;105557;1254;62052;-48
2024/01/23 02:56:33;;;;;;;3.00;2.60;;;;;;;12.17;48.90;98217.55;105521;1254;75438;-49
2024/01/23 02:59:00;;;;;;;4.10;2.60;;;;;;;12.18;48.99;98213.02;105620;1259;62048;-49
2024/01/23 03:01:26;;;;;;;3.10;2.80;;;;;;;12.18;49.09;98210.21;105627;1254;62249;-49
2024/01/23 03:03:53;;;;;;;4.50;3.10;;;;;;;12.18;48.96;98202.77;105563;1254;62107;-49
2024/01/23 03:06:20;;;;;;;3.30;3.00;;;;;;;12.18;49.04;98199.00;105539;1257;62131;-49
2024/01/23 03:08:46;;;;;;;3.40;3.00;;;;;;;12.17;49.02;98197.08;105482;1255;75286;-49
2024/01/23 03:11:13;;;;;;;2.80;2.60;;;;;;;12.17;48.99;98193.54;105605;1258;66221;-49
2024/01/23 03:13:40;;;;;;;3.60;2.80;;;;;;;12.18;49.05;98195.02;105613;1254;72371;-49
2024/01/23 03:16:06;;;;;;;3.30;3.00;;;;;;;12.18;48.89;98192.86;105642;1254;61973;-49
2024/01/23 03:18:33;;;;;;;3.10;2.70;;;;;;;12.18;48.89;98188.58;105638;1255;62135;-49
2024/01/23 03:21:00;;;;;;;3.50;2.90;;;;;;;12.18;49.00;98186.20;105653;1259;75385;-49
2024/01/23 03:23:26;;;;;;;3.20;2.60;;;;;;;12.18;48.93;98181.98;105501;1259;66192;-49
2024/01/23 03:25:53;;;;;;;2.90;2.60;;;;;;;12.18;49.01;98182.83;105336;1258;72638;-48
2024/01/23 03:28:20;;;;;;;3.60;2.90;;;;;;;12.18;48.99;98183.46;105446;1260;62162;-48
2024/01/23 03:30:47;;;;;;;3.50;3.00;;;;;;;12.18;48.96;98182.29;105374;1254;62059;-50
2024/01/23 03:33:13;;;;;;;3.20;2.90;;;;;;;12.18;49.05;98178.64;105401;1254;75439;-48
2024/01/23 03:35:40;;;;;;;3.10;2.80;;;;;;;12.18;49.02;98179.01;105419;1259;65918;-49
2024/01/23 03:38:07;;;;;;;3.50;3.00;;;;;;;12.18;48.89;98180.08;105494;1255;72558;-49
2024/01/23 03:40:34;;;;;;;3.00;2.70;;;;;;;12.18;48.99;98174.08;105642;1254;62149;-49
2024/01/23 03:43:00;;;;;;;3.40;2.60;;;;;;;12.18;49.02;98176.70;105541;1254;62057;-49
2024/01/23 03:45:27;;;;;;;3.10;2.60;;;;;;;12.18;49.01;98178.09;105375;1254;75136;-49
2024/01/23 03:47:54;;;;;;;3.20;2.70;;;;;;;12.18;48.92;98176.64;105541;1259;66015;-49
2024/01/23 03:50:21;;;;;;;3.10;2.80;;;;;;;12.19;48.98;98175.89;105458;1254;72458;-49
2024/01/23 03:52:47;;;;;;;4.00;3.00;;;;;;;12.18;49.09;98172.73;105565;1258;62000;-49
2024/01/23 03:55:14;;;;;;;2.90;2.60;;;;;;;12.18;48.96;98171.49;105648;1259;62136;-49
2024/01/23 03:57:41;;;;;;;3.10;2.80;;;;;;;12.18;49.01;98168.42;105621;1254;75132;-49
2024/01/23 04:00:09;;;;;;;2.70;2.50;;;;;;;12.18;48.86;98166.81;105573;1259;65848;-49
2024/01/23 04:02:40;;;;;;;3.00;2.60;;;;;;;12.18;48.95;98161.14;105487;1258;71337;-49
2024/01/23 04:05:08;;;;;;;3.20;2.90;;;;;;;12.19;48.89;98160.20;105574;1255;62049;-49
2024/01/23 04:07:34;;;;;;;3.10;2.60;;;;;;;12.19;49.02;98159.02;105635;1254;62147;-49
2024/01/23 04:10:02;;;;;;;3.00;2.50;;;;;;;12.19;49.05;98153.50;105595;1259;75382;-49
2024/01/23 04:12:28;;;;;;;3.70;2.90;;;;;;;12.18;48.98;98160.91;105676;1258;65731;-49
2024/01/23 04:14:55;;;;;;;2.90;2.60;;;;;;;12.18;48.96;98158.11;105614;1254;72438;-50
2024/01/23 04:17:22;;;;;;;3.70;2.80;;;;;;;12.18;48.98;98155.17;105486;1258;62047;-50
2024/01/23 04:19:49;;;;;;;3.80;2.60;;;;;;;12.19;48.96;98161.40;105351;1254;62135;-49
2024/01/23 04:22:15;;;;;;;3.10;2.70;;;;;;;12.19;48.85;98158.64;105412;1260;75373;-49
2024/01/23 04:24:42;;;;;;;2.90;2.60;;;;;;;12.19;48.96;98157.03;105354;1254;65566;-49
2024/01/23 04:27:09;;;;;;;3.80;3.00;;;;;;;12.19;48.86;98154.57;105515;1254;72560;-49
2024/01/23 04:29:35;;;;;;;3.20;2.90;;;;;;;12.19;48.93;98155.42;105653;1259;61982;-49
2024/01/23 04:32:03;;;;;;;3.40;3.00;;;;;;;12.19;49.00;98156.02;105641;1254;62130;-49
2024/01/23 04:34:29;;;;;;;3.10;2.80;;;;;;;12.19;49.00;98154.52;105720;1254;75398;-49
2024/01/23 04:36:56;;;;;;;3.70;2.90;;;;;;;12.19;48.88;98159.41;105620;1259;66043;-49
2024/01/23 04:39:23;;;;;;;3.40;2.90;;;;;;;12.19;49.03;98161.21;105470;1254;72461;-49
2024/01/23 04:41:49;;;;;;;3.50;2.90;;;;;;;12.19;49.02;98164.02;105709;1258;62054;-49
2024/01/23 04:44:16;;;;;;;3.10;2.70;;;;;;;12.19;48.95;98161.82;105479;1257;62128;-49
2024/01/23 04:46:45;;;;;;;2.90;2.60;;;;;;;12.19;49.01;98160.10;105970;1254;75325;-49
2024/01/23 04:49:12;;;;;;;3.60;2.70;;;;;;;12.19;48.91;98157.52;105603;1259;66165;-49
2024/01/23 04:51:38;;;;;;;2.50;2.30;;;;;;;12.20;48.93;98164.77;106158;1254;72408;-49
2024/01/23 04:54:05;;;;;;;4.00;2.90;;;;;;;12.19;48.97;98164.42;105651;1257;62038;-49
2024/01/23 04:56:32;;;;;;;3.70;2.60;;;;;;;12.20;48.90;98166.52;105587;1254;62147;-49
2024/01/23 04:58:59;;;;;;;3.20;2.70;;;;;;;12.20;48.92;98165.08;105455;1259;75202;-49
2024/01/23 05:01:25;;;;;;;3.10;2.80;;;;;;;12.20;49.03;98164.15;105601;1258;66072;-49
2024/01/23 05:03:52;;;;;;;3.50;2.60;;;;;;;12.20;48.95;98166.30;105575;1254;73128;-49
2024/01/23 05:06:19;;;;;;;3.00;2.70;;;;;;;12.20;48.99;98163.99;105627;1258;62054;-49
2024/01/23 05:08:46;;;;;;;3.40;3.00;;;;;;;12.20;48.96;98165.54;105533;1257;62070;-49
2024/01/23 05:11:12;;;;;;;3.20;2.70;;;;;;;12.20;48.89;98170.39;105553;1257;75265;-49
2024/01/23 05:13:42;;;;;;;2.80;2.60;;;;;;;12.20;48.91;98170.21;105621;1258;62083;-49
2024/01/23 05:16:08;;;;;;;3.40;3.00;;;;;;;12.20;48.87;98171.98;105607;1254;72615;-49
2024/01/23 05:18:35;;;;;;;3.00;2.50;;;;;;;12.20;48.86;98171.14;105496;1257;62515;-49
2024/01/23 05:21:03;;;;;;;3.30;2.70;;;;;;;12.21;49.00;98169.25;105545;1254;62176;-48
2024/01/23 05:23:29;;;;;;;3.40;3.00;;;;;;;12.20;48.89;98171.29;105650;1254;75197;-48
2024/01/23 05:25:56;;;;;;;3.30;2.70;;;;;;;12.20;48.97;98170.77;105537;1254;66201;-49
2024/01/23 05:28:23;;;;;;;3.00;2.50;;;;;;;12.21;49.02;98169.77;105502;1255;73167;-49
2024/01/23 05:30:49;;;;;;;2.90;2.40;;;;;;;12.20;48.87;98172.52;105437;1254;62040;-49
2024/01/23 05:33:16;;;;;;;3.80;2.80;;;;;;;12.20;48.97;98170.06;105434;1256;62126;-49
2024/01/23 05:35:43;;;;;;;2.90;2.60;;;;;;;12.20;49.05;98170.07;105460;1259;75381;-49
2024/01/23 05:38:09;;;;;;;2.60;2.40;;;;;;;12.20;48.95;98169.91;105450;1258;62692;-50
2024/01/23 05:40:36;;;;;;;3.50;2.70;;;;;;;12.20;49.00;98172.27;105392;1254;72610;-50
2024/01/23 05:43:03;;;;;;;3.00;2.60;;;;;;;12.20;48.97;98175.74;105397;1259;62054;-50
2024/01/23 05:45:29;;;;;;;3.10;2.80;;;;;;;12.20;48.90;98174.30;105412;1259;62039;-48
2024/01/23 05:47:56;;;;;;;2.90;2.60;;;;;;;12.20;49.04;98176.81;105455;1259;75115;-49
2024/01/23 05:50:24;;;;;;;3.30;3.00;;;;;;;12.20;48.95;98177.89;105364;1258;64808;-49
2024/01/23 05:52:50;;;;;;;4.20;2.50;;;;;;;12.20;48.86;98179.13;105510;1254;70568;-50
2024/01/23 05:55:17;;;;;;;3.40;2.50;;;;;;;12.20;48.94;98181.28;105409;1260;62054;-50
2024/01/23 05:57:43;;;;;;;3.00;2.70;;;;;;;12.21;49.02;98176.70;105500;1254;62260;-50
2024/01/23 06:00:13;;;;;;;3.30;2.90;;;;;;;12.21;48.97;98183.63;105441;1259;75193;-50
2024/01/23 06:02:40;;;;;;;2.70;2.50;;;;;;;12.21;48.99;98185.25;105420;1255;66116;-50
2024/01/23 06:05:08;;;;;;;2.90;2.40;;;;;;;12.21;48.92;98185.25;105432;1258;72555;-50
2024/01/23 06:07:40;;;;;;;2.80;2.50;;;;;;;12.21;49.03;98189.00;105399;1254;62165;-50
2024/01/23 06:10:07;;;;;;;2.60;2.40;;;;;;;12.21;48.97;98183.73;105417;1254;62178;-49
2024/01/23 06:12:34;;;;;;;2.90;2.60;;;;;;;12.22;48.90;98189.30;105482;1258;74647;-50
2024/01/23 06:15:01;;;;;;;2.70;2.50;;;;;;;12.21;48.91;98186.95;105400;1258;66131;-50
2024/01/23 06:17:28;;;;;;;2.80;2.40;;;;;;;12.22;49.00;98192.90;105421;1254;72491;-50
2024/01/23 06:19:54;;;;;;;3.10;2.40;;;;;;;12.23;48.99;98197.46;105387;1258;62053;-49
2024/01/23 06:22:21;;;;;;;3.10;2.60;;;;;;;12.23;48.98;98201.16;105425;1254;62083;-49
2024/01/23 06:25:04;;;;;;;5.40;2.90;;;;;;;12.24;48.91;98206.41;105431;1255;75385;-49
2024/01/23 06:27:31;;;;;;;3.00;2.50;;;;;;;12.24;49.07;98206.09;105457;1259;66180;-49
2024/01/23 06:29:58;;;;;;;3.10;2.80;;;;;;;12.23;48.87;98212.27;105321;1256;72623;-49
2024/01/23 06:32:25;;;;;;;2.80;2.40;;;;;;;12.24;48.96;98214.63;105430;1258;61958;-49
2024/01/23 06:34:52;;;;;;;3.50;2.60;;;;;;;12.24;48.90;98217.10;105188;1254;62070;-49
2024/01/23 06:37:19;;;;;;;2.70;2.50;;;;;;;12.24;48.93;98216.17;105456;1254;75377;-49
2024/01/23 06:39:47;;;;;;;3.00;2.60;;;;;;;12.25;48.94;98214.45;105582;1259;65395;-49
2024/01/23 06:42:13;;;;;;;3.20;2.30;;;;;;;12.25;48.95;98221.43;105472;1259;72665;-50
2024/01/23 06:44:40;;;;;;;2.70;2.40;;;;;;;12.25;48.89;98225.45;105368;1254;62052;-49
2024/01/23 06:47:07;;;;;;;2.70;2.50;;;;;;;12.25;48.83;98228.14;105401;1254;62173;-50
2024/01/23 06:49:33;;;;;;;2.40;2.20;;;;;;;12.25;48.92;98231.90;105304;1258;75393;-49
2024/01/23 06:52:01;;;;;;;3.10;2.70;;;;;;;12.26;48.96;98234.41;105416;1258;66198;-49
2024/01/23 06:54:28;;;;;;;2.90;2.60;;;;;;;12.26;49.00;98239.04;105325;1256;73445;-50
2024/01/23 06:56:54;;;;;;;2.80;2.60;;;;;;;12.26;48.83;98243.65;105584;1261;62053;-50
2024/01/23 06:59:21;;;;;;;2.50;2.30;;;;;;;12.27;48.92;98247.20;105424;1254;62104;-50
2024/01/23 07:01:48;;;;;;;3.90;2.60;;;;;;;12.27;48.93;98247.73;105423;1255;74289;-49
2024/01/23 07:04:15;;;;;;;3.20;2.60;;;;;;;12.27;48.88;98250.98;105545;1258;65892;-50
2024/01/23 07:06:41;;;;;;;2.80;2.50;;;;;;;12.27;48.92;98251.52;105349;1258;72466;-49
2024/01/23 07:09:08;;;;;;;4.20;2.70;;;;;;;12.28;49.00;98255.39;105446;1257;62047;-49
2024/01/23 07:11:38;;;;;;;2.90;2.60;;;;;;;12.28;49.00;98260.09;105687;1254;62165;-47
2024/01/23 07:14:04;;;;;;;3.80;2.50;;;;;;;12.29;49.14;98257.55;105446;1257;75350;-49
2024/01/23 07:16:31;;;;;;;4.20;2.80;;;;;;;12.31;49.10;98256.41;105628;1254;66024;-50
2024/01/23 07:18:58;;;;;;;3.20;2.90;;;;;;;12.32;49.09;98259.98;105586;1254;71572;-50
2024/01/23 07:21:25;;;;;;;5.50;3.20;;;;;;;12.32;49.19;98261.16;105669;1257;62044;-50
2024/01/23 07:23:51;;;;;;;5.90;3.10;;;;;;;12.32;49.41;98265.02;105608;1253;62124;-50
2024/01/23 07:26:18;;;;;;;4.40;2.90;;;;;;;12.33;49.50;98271.83;106566;1254;75204;-47
2024/01/23 07:28:45;;;;;;;5.90;3.00;;;;;;;12.34;49.54;98269.79;105510;1257;65908;-47
2024/01/23 07:31:29;;;;;;;3.60;3.10;;;;;;;12.34;49.45;98275.89;105897;1253;72587;-50
2024/01/23 07:33:56;;;;;;;5.30;3.00;;;;;;;12.36;49.58;98278.66;105409;1257;62060;-52
2024/01/23 07:36:23;;;;;;;6.40;3.00;;;;;;;12.38;49.57;98273.27;105466;1254;62167;-50
2024/01/23 07:38:51;;;;;;;5.80;3.40;;;;;;;12.38;49.61;98272.24;105511;1258;75424;-50
2024/01/23 07:41:18;;;;;;;6.20;3.20;;;;;;;12.40;49.55;98280.91;105511;1253;65406;-50
2024/01/23 07:43:45;;;;;;;6.80;3.40;;;;;;;12.40;49.57;98283.16;105632;1257;72457;-51
2024/01/23 07:46:12;;;;;;;5.60;3.30;;;;;;;12.41;49.58;98285.89;105416;1258;62035;-49
2024/01/23 07:48:39;;;;;;;4.70;3.20;;;;;;;12.41;49.46;98284.30;105633;1257;62099;-47
2024/01/23 07:51:06;;;;;;;5.90;2.90;;;;;;;12.40;49.54;98283.48;105502;1257;75381;-50
2024/01/23 07:53:33;;;;;;;6.50;3.40;;;;;;;12.42;49.53;98287.27;105515;1258;65125;-51
2024/01/23 07:56:00;;;;;;;5.70;3.30;;;;;;;12.42;49.56;98292.11;105433;1254;72386;-50
2024/01/23 07:58:27;;;;;;;5.30;3.80;;;;;;;12.43;49.42;98300.05;105598;1257;62050;-49
2024/01/23 08:00:53;;;;;;;5.20;3.30;;;;;;;12.43;49.55;98305.30;105511;1254;62112;-50
2024/01/23 08:03:21;;;;;;;4.90;3.20;;;;;;;12.43;49.54;98304.92;105437;1254;75210;-50
2024/01/23 08:05:48;;;;;;;5.40;3.30;;;;;;;12.43;49.54;98307.83;105495;1253;66326;-50
2024/01/23 08:08:14;;;;;;;4.30;3.60;;;;;;;12.44;49.47;98311.48;105696;1254;73107;-49
2024/01/23 08:10:41;;;;;;;4.70;3.50;;;;;;;12.44;49.49;98311.84;105685;1253;62041;-50
2024/01/23 08:13:08;;;;;;;4.90;3.50;;;;;;;12.44;49.45;98316.30;105675;1253;62053;-49
2024/01/23 08:15:34;;;;;;;5.30;3.30;;;;;;;12.44;49.59;98317.09;105594;1257;75167;-48
2024/01/23 08:18:06;;;;;;;6.00;3.70;;;;;;;12.45;49.42;98320.53;105475;1253;67638;-49
2024/01/23 08:20:33;;;;;;;5.50;3.40;;;;;;;12.46;49.35;98325.79;105384;1254;72996;-50
2024/01/23 08:23:00;;;;;;;4.30;3.40;;;;;;;12.46;49.41;98325.10;105664;1253;62692;-49
2024/01/23 08:25:26;;;;;;;4.60;3.40;;;;;;;12.46;49.49;98331.36;105633;1254;62014;-49
2024/01/23 08:27:53;;;;;;;4.70;3.80;;;;;;;12.47;49.64;98328.55;105577;1257;75386;-49
2024/01/23 08:30:20;;;;;;;4.30;3.50;;;;;;;12.48;49.54;98325.47;105318;1256;66826;-48
2024/01/23 08:32:49;;;;;;;7.80;4.00;;;;;;;12.49;49.68;98331.74;105394;1257;72567;-49
2024/01/23 08:35:16;;;;;;;4.70;3.30;;;;;;;12.49;49.58;98327.55;105359;1254;61955;-47
2024/01/23 08:37:42;;;;;;;6.10;3.40;;;;;;;12.50;49.63;98330.82;105332;1254;62412;-49
2024/01/23 08:40:09;;;;;;;9.20;3.70;;;;;;;12.51;49.53;98333.86;109189;1253;74643;-47
2024/01/23 08:42:36;;;;;;;6.10;3.60;;;;;;;12.52;49.40;98337.17;106394;1255;66111;-49
2024/01/23 08:45:04;;;;;;;7.60;3.40;;;;;;;12.53;49.43;98342.11;105661;1254;72596;-49
2024/01/23 08:47:33;;;;;;;12.00;4.30;;;;;;;12.53;49.23;98338.98;105548;1258;62057;-48
2024/01/23 08:50:00;;;;;;;4.20;3.40;;;;;;;12.53;49.13;98343.67;105426;1254;62168;-48
2024/01/23 08:52:26;;;;;;;14.80;4.30;;;;;;;12.54;49.21;98337.48;105562;1257;76013;-49
2024/01/23 08:54:53;;;;;;;15.60;4.00;;;;;;;12.53;49.30;98338.36;105454;1254;66584;-45
2024/01/23 08:57:22;;;;;;;16.40;3.80;;;;;;;12.54;49.30;98331.79;105420;1256;73137;-48
2024/01/23 08:59:49;;;;;;;16.60;3.80;;;;;;;12.55;49.55;98331.02;105359;1260;62122;-49
2024/01/23 09:02:16;;;;;;;11.70;3.60;;;;;;;12.55;49.45;98333.58;105378;1254;62101;-48
2024/01/23 09:04:43;;;;;;;16.80;3.40;;;;;;;12.56;49.52;98341.02;105278;1260;76024;-48
2024/01/23 09:07:12;;;;;;;14.70;3.50;;;;;;;12.58;49.61;98343.69;105536;1257;66278;-48
2024/01/23 09:09:42;;;;;;;15.90;3.90;;;;;;;12.58;49.70;98342.49;105174;1253;73759;-50
2024/01/23 09:12:09;;;;;;;9.90;3.80;;;;;;;12.59;49.62;98337.86;105532;1257;62044;-49
2024/01/23 09:14:36;;;;;;;13.70;4.00;;;;;;;12.60;49.55;98335.86;105356;1253;62050;-48
2024/01/23 09:17:03;;;;;;;11.80;3.80;;;;;;;12.61;49.67;98334.77;105511;1255;76491;-48
2024/01/23 09:19:30;;;;;;;16.20;3.60;;;;;;;12.61;49.53;98337.23;106271;1257;66646;-47
2024/01/23 09:21:57;;;;;;;9.80;3.60;;;;;;;12.63;49.64;98338.92;105478;1254;73924;-48
2024/01/23 09:24:24;;;;;;;12.80;3.80;;;;;;;12.64;49.72;98345.37;105544;1260;62140;-47
2024/01/23 09:26:51;;;;;;;9.30;3.50;;;;;;;12.64;49.77;98343.32;105445;1253;62228;-47
2024/01/23 09:29:19;;;;;;;9.60;3.30;;;;;;;12.65;49.67;98335.30;105506;1258;75264;-47
2024/01/23 09:31:46;;;;;;;10.40;3.30;;;;;;;12.66;49.60;98336.56;105390;1253;67242;-48
2024/01/23 09:34:13;;;;;;;18.60;3.80;;;;;;;12.66;49.75;98327.70;105544;1259;73764;-47
2024/01/23 09:36:40;;;;;;;10.20;4.00;;;;;;;12.67;49.61;98333.21;106242;1254;62150;-47
2024/01/23 09:39:07;;;;;;;10.30;3.40;;;;;;;12.67;49.66;98332.61;105602;1254;62035;-43
2024/01/23 09:41:34;;;;;;;7.80;3.70;;;;;;;12.67;49.61;98324.23;105290;1260;76407;-45
2024/01/23 09:44:01;;;;;;;9.10;3.60;;;;;;;12.68;49.57;98325.72;105454;1254;67074;-45
2024/01/23 09:46:28;;;;;;;9.80;3.60;;;;;;;12.68;49.62;98330.34;105226;1254;73484;-45
2024/01/23 09:48:56;;;;;;;7.30;3.60;;;;;;;12.69;49.69;98337.42;105484;1257;62056;-48
2024/01/23 09:51:23;;;;;;;7.40;3.50;;;;;;;12.70;49.61;98342.66;105648;1253;62069;-47
2024/01/23 09:53:50;;;;;;;9.90;3.80;;;;;;;12.70;49.74;98334.92;105439;1257;76104;-48
2024/01/23 09:56:17;;;;;;;6.90;3.40;;;;;;;12.72;49.84;98335.77;105234;1256;65940;-47
2024/01/23 09:58:44;;;;;;;11.50;3.70;;;;;;;12.72;49.95;98338.27;105498;1254;73751;-52
2024/01/23 10:01:11;;;;;;;7.20;3.70;;;;;;;12.73;49.81;98337.25;105336;1256;62067;-47
2024/01/23 10:03:38;;;;;;;9.20;3.80;;;;;;;12.75;49.88;98335.88;105525;1254;62446;-49
2024/01/23 10:06:05;;;;;;;6.50;3.70;;;;;;;12.76;49.91;98339.89;105503;1253;76294;-47
2024/01/23 10:08:32;;;;;;;10.40;3.50;;;;;;;12.77;49.98;98342.45;105660;1253;67239;-51
2024/01/23 10:10:59;;;;;;;6.80;3.60;;;;;;;12.78;50.21;98345.21;105496;1254;73446;-47
2024/01/23 10:13:27;;;;;;;5.40;3.70;;;;;;;12.80;50.42;98344.71;105507;1260;62007;-46
2024/01/23 10:15:54;;;;;;;8.10;3.80;;;;;;;12.81;50.42;98347.80;105451;1254;62429;-46
2024/01/23 10:18:21;;;;;;;8.70;3.60;;;;;;;12.83;50.36;98347.34;105598;1254;76527;-47
2024/01/23 10:20:50;;;;;;;11.10;3.80;;;;;;;12.85;50.48;98349.62;105576;1256;67224;-46
2024/01/23 10:23:17;;;;;;;8.60;3.30;;;;;;;12.87;50.60;98351.04;105528;1257;74481;-47
2024/01/23 10:25:43;;;;;;;7.20;3.50;;;;;;;12.88;50.72;98355.04;105509;1256;62072;-50
2024/01/23 10:28:10;;;;;;;7.50;3.60;;;;;;;12.90;50.79;98354.20;105748;1253;62135;-46
2024/01/23 10:30:40;;;;;;;4.50;3.10;;;;;;;12.91;50.98;98353.96;105656;1257;76465;-44
2024/01/23 10:33:10;;;;;;;8.30;3.20;;;;;;;12.92;50.91;98358.58;105557;1254;67289;-44
2024/01/23 10:35:37;;;;;;;8.30;3.30;;;;;;;12.93;51.04;98359.95;105443;1254;72368;-43
2024/01/23 10:38:05;;;;;;;7.00;3.40;;;;;;;12.95;51.01;98355.73;105439;1253;61959;-43
2024/01/23 10:40:32;;;;;;;3.70;3.00;;;;;;;12.96;51.04;98353.50;105497;1253;62172;-43
2024/01/23 10:42:59;;;;;;;5.10;3.20;;;;;;;12.97;51.03;98351.02;105659;1257;76005;-44
2024/01/23 10:45:26;;;;;;;4.50;3.20;;;;;;;12.98;51.08;98347.98;105668;1256;66832;-46
2024/01/23 10:47:53;;;;;;;3.50;3.20;;;;;;;12.99;51.10;98351.73;105114;1254;73713;-45
2024/01/23 10:50:21;;;;;;;6.00;3.40;;;;;;;13.00;50.91;98358.82;109208;1254;60059;-46
2024/01/23 10:52:48;;;;;;;3.40;2.60;;;;;;;13.01;51.08;98359.64;109095;1254;61179;-46
2024/01/23 10:55:16;;;;;;;5.00;3.10;;;;;;;13.03;51.01;98361.05;109235;1254;75382;-45
2024/01/23 10:57:46;;;;;;;7.10;3.30;;;;;;;13.05;50.88;98361.79;109287;1253;67835;-46
2024/01/23 11:00:19;;;;;;;5.90;3.20;;;;;;;13.07;50.78;98362.31;108795;1254;71870;-47
2024/01/23 11:02:49;;;;;;;5.80;3.00;;;;;;;13.09;50.56;98360.28;105856;1257;62054;-46
2024/01/23 11:05:17;;;;;;;5.40;3.30;;;;;;;13.10;50.43;98356.27;105693;1253;62038;-44
2024/01/23 11:07:53;;;;;;;4.80;2.80;;;;;;;13.12;50.31;98359.80;105552;1253;76289;-46
2024/01/23 11:10:27;;;;;;;4.80;3.20;;;;;;;13.13;50.18;98363.33;105519;1257;66230;-42
2024/01/23 11:13:03;;;;;;;4.90;3.10;;;;;;;13.13;50.13;98360.75;105603;1254;72681;-43
2024/01/23 11:15:30;;;;;;;4.80;3.40;;;;;;;13.14;50.16;98359.62;105621;1257;62047;-43
2024/01/23 11:18:26;;;;;;;4.00;3.10;;;;;;;13.14;50.03;98356.61;105319;1254;62032;-44
2024/01/23 11:21:04;;;;;;;7.60;3.40;;;;;;;13.13;50.01;98355.10;105628;1257;76259;-41
2024/01/23 11:23:33;;;;;;;4.80;3.10;;;;;;;13.12;49.88;98357.65;106221;1254;65459;-42